sensor_id;sensor_type;location;lat;lon;timestamp;P1;durP1;ratioP1;P2;durP2;ratioP2
24425;SDS011;12611;44.446;26.000;2024-01-25T00:00:56;4.33;;;3.50;;
24425;SDS011;12611;44.446;26.000;2024-01-25T00:03:25;3.23;;;2.90;;
24425;SDS011;12611;44.446;26.000;2024-01-25T00:05:53;21.63;;;5.77;;
24425;SDS011;12611;44.446;26.000;2024-01-25T00:08:22;1.60;;;1.50;;
24425;SDS011;12611;44.446;26.000;2024-01-25T00:10:50;4.77;;;3.83;;
24425;SDS011;12611;44.446;26.000;2024-01-25T00:13:20;8.83;;;5.50;;
24425;SDS011;12611;44.446;26.000;2024-01-25T00:15:49;5.80;;;4.67;;
24425;SDS011;12611;44.446;26.000;2024-01-25T00:18:17;4.50;;;2.30;;
24425;SDS011;12611;44.446;26.000;2024-01-25T00:20:46;7.70;;;4.93;;
24425;SDS011;12611;44.446;26.000;2024-01-25T00:23:15;5.83;;;3.13;;
24425;SDS011;12611;44.446;26.000;2024-01-25T00:25:43;3.93;;;3.03;;
24425;SDS011;12611;44.446;26.000;2024-01-25T00:28:12;2.90;;;2.70;;
24425;SDS011;12611;44.446;26.000;2024-01-25T00:30:42;7.53;;;3.77;;
24425;SDS011;12611;44.446;26.000;2024-01-25T00:33:11;3.50;;;3.20;;
24425;SDS011;12611;44.446;26.000;2024-01-25T00:35:40;4.57;;;4.07;;
24425;SDS011;12611;44.446;26.000;2024-01-25T00:38:09;6.90;;;4.47;;
24425;SDS011;12611;44.446;26.000;2024-01-25T00:40:39;5.50;;;4.93;;
24425;SDS011;12611;44.446;26.000;2024-01-25T00:43:08;6.33;;;4.80;;
24425;SDS011;12611;44.446;26.000;2024-01-25T00:45:37;3.57;;;2.50;;
24425;SDS011;12611;44.446;26.000;2024-01-25T00:48:08;10.70;;;3.97;;
24425;SDS011;12611;44.446;26.000;2024-01-25T00:50:38;2.87;;;2.67;;
24425;SDS011;12611;44.446;26.000;2024-01-25T00:53:07;1.90;;;1.70;;
24425;SDS011;12611;44.446;26.000;2024-01-25T00:55:37;5.47;;;3.97;;
24425;SDS011;12611;44.446;26.000;2024-01-25T00:58:07;6.10;;;4.00;;
24425;SDS011;12611;44.446;26.000;2024-01-25T01:00:36;3.47;;;2.73;;
24425;SDS011;12611;44.446;26.000;2024-01-25T01:03:05;3.30;;;3.00;;
24425;SDS011;12611;44.446;26.000;2024-01-25T01:05:37;11.43;;;4.10;;
24425;SDS011;12611;44.446;26.000;2024-01-25T01:08:07;2.47;;;2.27;;
24425;SDS011;12611;44.446;26.000;2024-01-25T01:10:36;2.20;;;2.00;;
24425;SDS011;12611;44.446;26.000;2024-01-25T01:13:05;2.57;;;2.37;;
24425;SDS011;12611;44.446;26.000;2024-01-25T01:15:33;4.80;;;4.17;;
24425;SDS011;12611;44.446;26.000;2024-01-25T01:18:02;5.10;;;3.80;;
24425;SDS011;12611;44.446;26.000;2024-01-25T01:24:10;5.30;;;4.47;;
24425;SDS011;12611;44.446;26.000;2024-01-25T01:26:39;6.23;;;3.37;;
24425;SDS011;12611;44.446;26.000;2024-01-25T01:29:08;2.70;;;2.50;;
24425;SDS011;12611;44.446;26.000;2024-01-25T01:31:50;7.10;;;5.40;;
24425;SDS011;12611;44.446;26.000;2024-01-25T01:34:19;7.63;;;4.70;;
24425;SDS011;12611;44.446;26.000;2024-01-25T01:36:49;2.63;;;2.53;;
24425;SDS011;12611;44.446;26.000;2024-01-25T01:39:18;4.63;;;3.83;;
24425;SDS011;12611;44.446;26.000;2024-01-25T01:41:46;9.93;;;5.00;;
24425;SDS011;12611;44.446;26.000;2024-01-25T01:44:16;6.57;;;5.43;;
24425;SDS011;12611;44.446;26.000;2024-01-25T01:46:44;3.53;;;3.23;;
24425;SDS011;12611;44.446;26.000;2024-01-25T01:49:13;6.20;;;4.57;;
24425;SDS011;12611;44.446;26.000;2024-01-25T01:51:43;1.67;;;1.57;;
24425;SDS011;12611;44.446;26.000;2024-01-25T01:54:14;8.73;;;3.93;;
24425;SDS011;12611;44.446;26.000;2024-01-25T01:56:42;5.13;;;3.90;;
24425;SDS011;12611;44.446;26.000;2024-01-25T01:59:12;22.17;;;4.73;;
24425;SDS011;12611;44.446;26.000;2024-01-25T02:01:40;6.73;;;2.27;;
24425;SDS011;12611;44.446;26.000;2024-01-25T02:04:09;6.23;;;4.27;;
24425;SDS011;12611;44.446;26.000;2024-01-25T02:06:38;3.90;;;3.60;;
24425;SDS011;12611;44.446;26.000;2024-01-25T02:09:07;2.57;;;2.37;;
24425;SDS011;12611;44.446;26.000;2024-01-25T02:11:37;7.60;;;4.30;;
24425;SDS011;12611;44.446;26.000;2024-01-25T02:14:06;4.47;;;2.40;;
24425;SDS011;12611;44.446;26.000;2024-01-25T02:16:37;5.00;;;4.60;;
24425;SDS011;12611;44.446;26.000;2024-01-25T02:19:06;4.13;;;3.80;;
24425;SDS011;12611;44.446;26.000;2024-01-25T02:21:34;3.53;;;3.30;;
24425;SDS011;12611;44.446;26.000;2024-01-25T02:24:05;6.50;;;5.90;;
24425;SDS011;12611;44.446;26.000;2024-01-25T02:26:34;6.97;;;4.00;;
24425;SDS011;12611;44.446;26.000;2024-01-25T02:29:03;7.27;;;4.87;;
24425;SDS011;12611;44.446;26.000;2024-01-25T02:31:34;6.33;;;5.80;;
24425;SDS011;12611;44.446;26.000;2024-01-25T02:34:02;18.50;;;3.57;;
24425;SDS011;12611;44.446;26.000;2024-01-25T02:36:31;3.97;;;3.63;;
24425;SDS011;12611;44.446;26.000;2024-01-25T02:38:59;9.57;;;3.33;;
24425;SDS011;12611;44.446;26.000;2024-01-25T02:41:30;6.73;;;2.77;;
24425;SDS011;12611;44.446;26.000;2024-01-25T02:43:59;2.33;;;2.23;;
24425;SDS011;12611;44.446;26.000;2024-01-25T02:46:28;4.43;;;3.30;;
24425;SDS011;12611;44.446;26.000;2024-01-25T02:49:10;2.33;;;2.23;;
24425;SDS011;12611;44.446;26.000;2024-01-25T02:51:39;3.13;;;2.87;;
24425;SDS011;12611;44.446;26.000;2024-01-25T02:54:07;2.57;;;2.37;;
24425;SDS011;12611;44.446;26.000;2024-01-25T02:56:37;5.07;;;4.67;;
24425;SDS011;12611;44.446;26.000;2024-01-25T02:59:06;2.67;;;2.47;;
24425;SDS011;12611;44.446;26.000;2024-01-25T03:01:38;2.50;;;2.30;;
24425;SDS011;12611;44.446;26.000;2024-01-25T03:04:08;14.30;;;5.40;;
24425;SDS011;12611;44.446;26.000;2024-01-25T03:06:36;3.80;;;3.50;;
24425;SDS011;12611;44.446;26.000;2024-01-25T03:09:33;4.03;;;3.57;;
24425;SDS011;12611;44.446;26.000;2024-01-25T03:12:30;3.37;;;2.30;;
24425;SDS011;12611;44.446;26.000;2024-01-25T03:14:58;3.60;;;2.43;;
24425;SDS011;12611;44.446;26.000;2024-01-25T03:17:28;10.70;;;6.13;;
24425;SDS011;12611;44.446;26.000;2024-01-25T03:19:57;7.87;;;3.43;;
24425;SDS011;12611;44.446;26.000;2024-01-25T03:22:26;3.53;;;3.27;;
24425;SDS011;12611;44.446;26.000;2024-01-25T03:24:54;5.00;;;3.70;;
24425;SDS011;12611;44.446;26.000;2024-01-25T03:27:23;4.27;;;3.87;;
24425;SDS011;12611;44.446;26.000;2024-01-25T03:29:52;3.30;;;2.73;;
24425;SDS011;12611;44.446;26.000;2024-01-25T03:32:21;9.70;;;3.53;;
24425;SDS011;12611;44.446;26.000;2024-01-25T03:35:04;9.60;;;4.40;;
24425;SDS011;12611;44.446;26.000;2024-01-25T03:37:33;9.47;;;2.17;;
24425;SDS011;12611;44.446;26.000;2024-01-25T03:40:02;1.97;;;1.87;;
24425;SDS011;12611;44.446;26.000;2024-01-25T03:42:31;5.80;;;2.63;;
24425;SDS011;12611;44.446;26.000;2024-01-25T03:45:01;2.50;;;2.40;;
24425;SDS011;12611;44.446;26.000;2024-01-25T03:47:30;2.57;;;1.97;;
24425;SDS011;12611;44.446;26.000;2024-01-25T03:49:58;2.73;;;2.57;;
24425;SDS011;12611;44.446;26.000;2024-01-25T03:52:27;8.63;;;4.60;;
24425;SDS011;12611;44.446;26.000;2024-01-25T03:55:23;3.80;;;3.07;;
24425;SDS011;12611;44.446;26.000;2024-01-25T03:58:05;3.47;;;1.57;;
24425;SDS011;12611;44.446;26.000;2024-01-25T04:00:49;4.57;;;2.87;;
24425;SDS011;12611;44.446;26.000;2024-01-25T04:03:18;4.07;;;2.17;;
24425;SDS011;12611;44.446;26.000;2024-01-25T04:05:47;6.78;;;4.85;;
24425;SDS011;12611;44.446;26.000;2024-01-25T04:08:16;4.43;;;3.57;;
24425;SDS011;12611;44.446;26.000;2024-01-25T04:10:44;7.53;;;4.60;;
24425;SDS011;12611;44.446;26.000;2024-01-25T04:13:13;5.60;;;3.93;;
24425;SDS011;12611;44.446;26.000;2024-01-25T04:15:41;6.73;;;2.80;;
24425;SDS011;12611;44.446;26.000;2024-01-25T04:18:11;1.50;;;1.40;;
24425;SDS011;12611;44.446;26.000;2024-01-25T04:20:40;2.47;;;2.27;;
24425;SDS011;12611;44.446;26.000;2024-01-25T04:23:09;5.57;;;2.90;;
24425;SDS011;12611;44.446;26.000;2024-01-25T04:25:37;1.33;;;1.27;;
24425;SDS011;12611;44.446;26.000;2024-01-25T04:28:06;11.43;;;4.77;;
24425;SDS011;12611;44.446;26.000;2024-01-25T04:30:35;5.43;;;5.03;;
24425;SDS011;12611;44.446;26.000;2024-01-25T04:33:04;6.43;;;4.13;;
24425;SDS011;12611;44.446;26.000;2024-01-25T04:35:34;2.90;;;2.70;;
24425;SDS011;12611;44.446;26.000;2024-01-25T04:38:03;9.50;;;4.17;;
24425;SDS011;12611;44.446;26.000;2024-01-25T04:40:31;6.43;;;4.53;;
24425;SDS011;12611;44.446;26.000;2024-01-25T04:43:00;2.70;;;2.50;;
24425;SDS011;12611;44.446;26.000;2024-01-25T04:45:28;5.83;;;2.77;;
24425;SDS011;12611;44.446;26.000;2024-01-25T04:47:57;2.10;;;1.93;;
24425;SDS011;12611;44.446;26.000;2024-01-25T04:50:26;5.30;;;2.63;;
24425;SDS011;12611;44.446;26.000;2024-01-25T04:52:56;4.83;;;3.57;;
24425;SDS011;12611;44.446;26.000;2024-01-25T04:55:26;4.63;;;3.17;;
24425;SDS011;12611;44.446;26.000;2024-01-25T04:57:55;4.83;;;4.53;;
24425;SDS011;12611;44.446;26.000;2024-01-25T05:00:24;9.20;;;4.77;;
24425;SDS011;12611;44.446;26.000;2024-01-25T05:03:02;5.70;;;3.43;;
24425;SDS011;12611;44.446;26.000;2024-01-25T05:05:30;2.73;;;2.37;;
24425;SDS011;12611;44.446;26.000;2024-01-25T05:08:14;3.80;;;2.90;;
24425;SDS011;12611;44.446;26.000;2024-01-25T05:10:56;3.00;;;2.57;;
24425;SDS011;12611;44.446;26.000;2024-01-25T05:13:25;3.60;;;3.30;;
24425;SDS011;12611;44.446;26.000;2024-01-25T05:15:53;2.30;;;2.20;;
24425;SDS011;12611;44.446;26.000;2024-01-25T05:18:22;2.80;;;2.60;;
24425;SDS011;12611;44.446;26.000;2024-01-25T05:20:51;4.23;;;3.57;;
24425;SDS011;12611;44.446;26.000;2024-01-25T05:23:23;2.83;;;2.63;;
24425;SDS011;12611;44.446;26.000;2024-01-25T05:25:52;5.13;;;4.57;;
24425;SDS011;12611;44.446;26.000;2024-01-25T05:28:20;7.17;;;2.77;;
24425;SDS011;12611;44.446;26.000;2024-01-25T05:30:50;2.37;;;2.17;;
24425;SDS011;12611;44.446;26.000;2024-01-25T05:33:19;3.20;;;2.90;;
24425;SDS011;12611;44.446;26.000;2024-01-25T05:35:48;4.53;;;3.93;;
24425;SDS011;12611;44.446;26.000;2024-01-25T05:38:17;3.60;;;3.27;;
24425;SDS011;12611;44.446;26.000;2024-01-25T05:40:47;12.23;;;5.33;;
24425;SDS011;12611;44.446;26.000;2024-01-25T05:43:15;4.27;;;3.37;;
24425;SDS011;12611;44.446;26.000;2024-01-25T05:45:45;2.87;;;2.67;;
24425;SDS011;12611;44.446;26.000;2024-01-25T05:48:13;8.17;;;2.37;;
24425;SDS011;12611;44.446;26.000;2024-01-25T05:50:42;7.77;;;3.73;;
24425;SDS011;12611;44.446;26.000;2024-01-25T05:53:24;6.23;;;4.40;;
24425;SDS011;12611;44.446;26.000;2024-01-25T05:55:54;5.20;;;3.77;;
24425;SDS011;12611;44.446;26.000;2024-01-25T05:58:23;6.00;;;3.50;;
24425;SDS011;12611;44.446;26.000;2024-01-25T06:01:06;6.07;;;2.97;;
24425;SDS011;12611;44.446;26.000;2024-01-25T06:03:48;13.70;;;5.17;;
24425;SDS011;12611;44.446;26.000;2024-01-25T06:06:17;4.40;;;3.57;;
24425;SDS011;12611;44.446;26.000;2024-01-25T06:08:46;5.53;;;4.93;;
24425;SDS011;12611;44.446;26.000;2024-01-25T06:11:29;7.77;;;5.63;;
24425;SDS011;12611;44.446;26.000;2024-01-25T06:13:57;14.70;;;4.70;;
24425;SDS011;12611;44.446;26.000;2024-01-25T06:16:26;7.40;;;4.90;;
24425;SDS011;12611;44.446;26.000;2024-01-25T06:18:54;5.97;;;5.43;;
24425;SDS011;12611;44.446;26.000;2024-01-25T06:21:23;4.40;;;4.10;;
24425;SDS011;12611;44.446;26.000;2024-01-25T06:24:01;5.27;;;4.70;;
24425;SDS011;12611;44.446;26.000;2024-01-25T06:26:31;7.00;;;5.50;;
24425;SDS011;12611;44.446;26.000;2024-01-25T06:28:59;9.03;;;6.67;;
24425;SDS011;12611;44.446;26.000;2024-01-25T06:31:42;17.10;;;7.63;;
24425;SDS011;12611;44.446;26.000;2024-01-25T06:34:11;5.07;;;4.67;;
24425;SDS011;12611;44.446;26.000;2024-01-25T06:36:40;15.10;;;11.47;;
24425;SDS011;12611;44.446;26.000;2024-01-25T06:39:08;17.43;;;10.40;;
24425;SDS011;12611;44.446;26.000;2024-01-25T06:41:52;7.33;;;5.87;;
24425;SDS011;12611;44.446;26.000;2024-01-25T06:44:20;9.87;;;7.50;;
24425;SDS011;12611;44.446;26.000;2024-01-25T06:46:49;33.47;;;8.43;;
24425;SDS011;12611;44.446;26.000;2024-01-25T06:49:18;16.27;;;9.00;;
24425;SDS011;12611;44.446;26.000;2024-01-25T06:52:15;17.43;;;10.33;;
24425;SDS011;12611;44.446;26.000;2024-01-25T06:54:44;9.73;;;6.33;;
24425;SDS011;12611;44.446;26.000;2024-01-25T06:59:57;7.90;;;4.93;;
24425;SDS011;12611;44.446;26.000;2024-01-25T07:02:54;6.43;;;4.07;;
24425;SDS011;12611;44.446;26.000;2024-01-25T07:05:22;5.03;;;4.53;;
24425;SDS011;12611;44.446;26.000;2024-01-25T07:07:51;9.63;;;4.60;;
24425;SDS011;12611;44.446;26.000;2024-01-25T07:10:19;7.07;;;4.37;;
24425;SDS011;12611;44.446;26.000;2024-01-25T07:13:04;6.47;;;5.47;;
24425;SDS011;12611;44.446;26.000;2024-01-25T07:15:33;3.83;;;3.13;;
24425;SDS011;12611;44.446;26.000;2024-01-25T07:18:01;5.07;;;4.60;;
24425;SDS011;12611;44.446;26.000;2024-01-25T07:20:30;5.23;;;4.17;;
24425;SDS011;12611;44.446;26.000;2024-01-25T07:22:59;12.10;;;5.13;;
24425;SDS011;12611;44.446;26.000;2024-01-25T07:25:28;4.90;;;3.13;;
24425;SDS011;12611;44.446;26.000;2024-01-25T07:27:56;4.00;;;3.53;;
24425;SDS011;12611;44.446;26.000;2024-01-25T07:30:26;5.83;;;5.33;;
24425;SDS011;12611;44.446;26.000;2024-01-25T07:32:55;13.43;;;5.30;;
24425;SDS011;12611;44.446;26.000;2024-01-25T07:35:23;7.03;;;4.43;;
24425;SDS011;12611;44.446;26.000;2024-01-25T07:38:19;17.00;;;7.33;;
24425;SDS011;12611;44.446;26.000;2024-01-25T07:40:48;13.33;;;7.13;;
24425;SDS011;12611;44.446;26.000;2024-01-25T07:43:30;7.10;;;6.40;;
24425;SDS011;12611;44.446;26.000;2024-01-25T07:48:57;9.70;;;5.87;;
24425;SDS011;12611;44.446;26.000;2024-01-25T07:51:40;6.50;;;3.53;;
24425;SDS011;12611;44.446;26.000;2024-01-25T07:54:09;5.33;;;4.20;;
24425;SDS011;12611;44.446;26.000;2024-01-25T07:56:38;6.60;;;5.03;;
24425;SDS011;12611;44.446;26.000;2024-01-25T07:59:20;6.73;;;5.87;;
24425;SDS011;12611;44.446;26.000;2024-01-25T08:05:02;3.23;;;2.77;;
24425;SDS011;12611;44.446;26.000;2024-01-25T08:07:31;5.40;;;4.67;;
24425;SDS011;12611;44.446;26.000;2024-01-25T08:10:27;3.10;;;2.83;;
24425;SDS011;12611;44.446;26.000;2024-01-25T08:13:09;4.10;;;3.73;;
24425;SDS011;12611;44.446;26.000;2024-01-25T08:15:38;7.30;;;4.87;;
24425;SDS011;12611;44.446;26.000;2024-01-25T08:18:20;12.63;;;5.23;;
24425;SDS011;12611;44.446;26.000;2024-01-25T08:21:04;6.27;;;5.77;;
24425;SDS011;12611;44.446;26.000;2024-01-25T08:23:33;2.17;;;1.97;;
24425;SDS011;12611;44.446;26.000;2024-01-25T08:26:15;7.27;;;3.47;;
24425;SDS011;12611;44.446;26.000;2024-01-25T08:28:57;5.37;;;3.60;;
24425;SDS011;12611;44.446;26.000;2024-01-25T08:31:26;13.27;;;5.80;;
24425;SDS011;12611;44.446;26.000;2024-01-25T08:33:55;3.27;;;2.97;;
24425;SDS011;12611;44.446;26.000;2024-01-25T08:39:51;8.83;;;4.53;;
24425;SDS011;12611;44.446;26.000;2024-01-25T08:42:34;17.87;;;4.40;;
24425;SDS011;12611;44.446;26.000;2024-01-25T08:45:03;4.37;;;3.67;;
24425;SDS011;12611;44.446;26.000;2024-01-25T08:47:45;5.00;;;3.72;;
24425;SDS011;12611;44.446;26.000;2024-01-25T08:50:16;2.13;;;2.03;;
24425;SDS011;12611;44.446;26.000;2024-01-25T08:52:58;4.17;;;3.67;;
24425;SDS011;12611;44.446;26.000;2024-01-25T09:01:40;4.87;;;1.70;;
24425;SDS011;12611;44.446;26.000;2024-01-25T09:04:08;3.10;;;2.83;;
24425;SDS011;12611;44.446;26.000;2024-01-25T09:06:37;5.70;;;3.10;;
24425;SDS011;12611;44.446;26.000;2024-01-25T09:09:06;2.37;;;2.17;;
24425;SDS011;12611;44.446;26.000;2024-01-25T09:11:34;2.90;;;2.20;;
24425;SDS011;12611;44.446;26.000;2024-01-25T09:17:03;5.03;;;3.20;;
24425;SDS011;12611;44.446;26.000;2024-01-25T09:19:31;11.13;;;5.07;;
24425;SDS011;12611;44.446;26.000;2024-01-25T09:22:13;3.00;;;2.60;;
24425;SDS011;12611;44.446;26.000;2024-01-25T09:24:43;2.93;;;2.53;;
24425;SDS011;12611;44.446;26.000;2024-01-25T09:27:12;2.57;;;2.17;;
24425;SDS011;12611;44.446;26.000;2024-01-25T09:32:40;1.90;;;1.67;;
24425;SDS011;12611;44.446;26.000;2024-01-25T09:35:09;2.58;;;2.38;;
24425;SDS011;12611;44.446;26.000;2024-01-25T09:37:37;4.43;;;3.50;;
24425;SDS011;12611;44.446;26.000;2024-01-25T09:40:06;4.67;;;2.43;;
24425;SDS011;12611;44.446;26.000;2024-01-25T09:42:36;2.30;;;1.43;;
24425;SDS011;12611;44.446;26.000;2024-01-25T09:45:06;1.53;;;1.43;;
24425;SDS011;12611;44.446;26.000;2024-01-25T09:47:51;3.13;;;2.83;;
24425;SDS011;12611;44.446;26.000;2024-01-25T09:50:20;3.13;;;2.03;;
24425;SDS011;12611;44.446;26.000;2024-01-25T09:53:02;2.90;;;2.70;;
24425;SDS011;12611;44.446;26.000;2024-01-25T09:55:33;3.20;;;2.13;;
24425;SDS011;12611;44.446;26.000;2024-01-25T09:58:36;4.93;;;2.63;;
24425;SDS011;12611;44.446;26.000;2024-01-25T10:01:10;7.20;;;2.73;;
24425;SDS011;12611;44.446;26.000;2024-01-25T10:03:43;2.37;;;2.17;;
24425;SDS011;12611;44.446;26.000;2024-01-25T10:06:12;1.37;;;1.27;;
24425;SDS011;12611;44.446;26.000;2024-01-25T10:08:42;4.60;;;4.00;;
24425;SDS011;12611;44.446;26.000;2024-01-25T10:11:10;2.43;;;2.23;;
24425;SDS011;12611;44.446;26.000;2024-01-25T10:13:42;7.30;;;2.63;;
24425;SDS011;12611;44.446;26.000;2024-01-25T10:16:11;2.57;;;2.10;;
24425;SDS011;12611;44.446;26.000;2024-01-25T10:21:41;3.27;;;2.90;;
24425;SDS011;12611;44.446;26.000;2024-01-25T10:24:10;8.40;;;3.13;;
24425;SDS011;12611;44.446;26.000;2024-01-25T10:26:40;3.97;;;2.70;;
24425;SDS011;12611;44.446;26.000;2024-01-25T10:29:24;2.33;;;1.77;;
24425;SDS011;12611;44.446;26.000;2024-01-25T10:31:53;6.17;;;2.10;;
24425;SDS011;12611;44.446;26.000;2024-01-25T10:34:24;5.10;;;2.93;;
24425;SDS011;12611;44.446;26.000;2024-01-25T10:37:07;5.13;;;4.17;;
24425;SDS011;12611;44.446;26.000;2024-01-25T10:39:50;6.83;;;2.57;;
24425;SDS011;12611;44.446;26.000;2024-01-25T10:42:21;5.83;;;2.93;;
24425;SDS011;12611;44.446;26.000;2024-01-25T10:44:49;1.50;;;1.40;;
24425;SDS011;12611;44.446;26.000;2024-01-25T10:47:18;2.03;;;1.80;;
24425;SDS011;12611;44.446;26.000;2024-01-25T10:50:02;2.03;;;1.70;;
24425;SDS011;12611;44.446;26.000;2024-01-25T10:52:35;3.60;;;2.80;;
24425;SDS011;12611;44.446;26.000;2024-01-25T10:55:18;1.43;;;1.33;;
24425;SDS011;12611;44.446;26.000;2024-01-25T10:58:02;3.93;;;3.07;;
24425;SDS011;12611;44.446;26.000;2024-01-25T11:00:31;1.50;;;1.40;;
24425;SDS011;12611;44.446;26.000;2024-01-25T11:03:14;2.30;;;2.10;;
24425;SDS011;12611;44.446;26.000;2024-01-25T11:05:43;3.60;;;2.50;;
24425;SDS011;12611;44.446;26.000;2024-01-25T11:08:27;7.30;;;2.90;;
24425;SDS011;12611;44.446;26.000;2024-01-25T11:10:55;4.90;;;1.83;;
24425;SDS011;12611;44.446;26.000;2024-01-25T11:13:38;2.27;;;2.00;;
24425;SDS011;12611;44.446;26.000;2024-01-25T11:16:11;2.17;;;2.03;;
24425;SDS011;12611;44.446;26.000;2024-01-25T11:18:47;2.57;;;1.73;;
24425;SDS011;12611;44.446;26.000;2024-01-25T11:21:28;4.73;;;2.77;;
24425;SDS011;12611;44.446;26.000;2024-01-25T11:24:11;2.93;;;2.27;;
24425;SDS011;12611;44.446;26.000;2024-01-25T11:26:43;1.00;;;1.00;;
24425;SDS011;12611;44.446;26.000;2024-01-25T11:29:12;6.10;;;3.50;;
24425;SDS011;12611;44.446;26.000;2024-01-25T11:31:43;2.93;;;2.53;;
24425;SDS011;12611;44.446;26.000;2024-01-25T11:34:12;7.53;;;2.53;;
24425;SDS011;12611;44.446;26.000;2024-01-25T11:36:44;2.87;;;2.67;;
24425;SDS011;12611;44.446;26.000;2024-01-25T11:39:13;3.40;;;1.63;;
24425;SDS011;12611;44.446;26.000;2024-01-25T11:41:43;4.80;;;2.93;;
24425;SDS011;12611;44.446;26.000;2024-01-25T11:44:12;3.83;;;2.20;;
24425;SDS011;12611;44.446;26.000;2024-01-25T11:46:41;4.20;;;2.27;;
24425;SDS011;12611;44.446;26.000;2024-01-25T11:49:10;10.93;;;3.03;;
24425;SDS011;12611;44.446;26.000;2024-01-25T11:51:39;4.83;;;2.53;;
24425;SDS011;12611;44.446;26.000;2024-01-25T11:54:10;3.63;;;2.13;;
24425;SDS011;12611;44.446;26.000;2024-01-25T11:56:53;3.57;;;2.30;;
24425;SDS011;12611;44.446;26.000;2024-01-25T11:59:21;1.97;;;1.73;;
24425;SDS011;12611;44.446;26.000;2024-01-25T12:01:50;2.10;;;0.90;;
24425;SDS011;12611;44.446;26.000;2024-01-25T12:04:34;2.67;;;2.47;;
24425;SDS011;12611;44.446;26.000;2024-01-25T12:07:03;1.63;;;1.53;;
24425;SDS011;12611;44.446;26.000;2024-01-25T12:09:58;3.13;;;1.27;;
24425;SDS011;12611;44.446;26.000;2024-01-25T12:12:27;2.83;;;2.17;;
24425;SDS011;12611;44.446;26.000;2024-01-25T12:14:58;4.03;;;1.70;;
24425;SDS011;12611;44.446;26.000;2024-01-25T12:17:54;4.37;;;2.20;;
24425;SDS011;12611;44.446;26.000;2024-01-25T12:20:23;1.87;;;1.60;;
24425;SDS011;12611;44.446;26.000;2024-01-25T12:23:06;5.00;;;1.73;;
24425;SDS011;12611;44.446;26.000;2024-01-25T12:25:40;2.93;;;2.03;;
24425;SDS011;12611;44.446;26.000;2024-01-25T12:28:36;2.43;;;2.07;;
24425;SDS011;12611;44.446;26.000;2024-01-25T12:31:19;1.57;;;1.47;;
24425;SDS011;12611;44.446;26.000;2024-01-25T12:33:47;7.50;;;1.90;;
24425;SDS011;12611;44.446;26.000;2024-01-25T12:36:16;1.67;;;1.57;;
24425;SDS011;12611;44.446;26.000;2024-01-25T12:38:59;4.83;;;1.83;;
24425;SDS011;12611;44.446;26.000;2024-01-25T12:41:29;2.93;;;1.63;;
24425;SDS011;12611;44.446;26.000;2024-01-25T12:43:58;2.73;;;1.53;;
24425;SDS011;12611;44.446;26.000;2024-01-25T12:46:27;2.03;;;1.80;;
24425;SDS011;12611;44.446;26.000;2024-01-25T12:48:57;4.37;;;2.57;;
24425;SDS011;12611;44.446;26.000;2024-01-25T12:51:53;2.53;;;2.20;;
24425;SDS011;12611;44.446;26.000;2024-01-25T12:54:22;2.03;;;1.83;;
24425;SDS011;12611;44.446;26.000;2024-01-25T12:56:52;4.17;;;2.13;;
24425;SDS011;12611;44.446;26.000;2024-01-25T12:59:21;2.47;;;2.00;;
24425;SDS011;12611;44.446;26.000;2024-01-25T13:01:49;2.27;;;1.50;;
24425;SDS011;12611;44.446;26.000;2024-01-25T13:04:18;5.50;;;1.17;;
24425;SDS011;12611;44.446;26.000;2024-01-25T13:06:50;2.40;;;1.90;;
24425;SDS011;12611;44.446;26.000;2024-01-25T13:09:20;2.37;;;1.53;;
24425;SDS011;12611;44.446;26.000;2024-01-25T13:11:49;4.00;;;2.10;;
24425;SDS011;12611;44.446;26.000;2024-01-25T13:14:19;1.10;;;1.00;;
24425;SDS011;12611;44.446;26.000;2024-01-25T13:16:50;1.90;;;1.50;;
24425;SDS011;12611;44.446;26.000;2024-01-25T13:19:18;2.77;;;1.80;;
24425;SDS011;12611;44.446;26.000;2024-01-25T13:21:48;4.33;;;2.37;;
24425;SDS011;12611;44.446;26.000;2024-01-25T13:24:18;1.43;;;1.33;;
24425;SDS011;12611;44.446;26.000;2024-01-25T13:26:47;5.20;;;1.67;;
24425;SDS011;12611;44.446;26.000;2024-01-25T13:29:18;5.13;;;1.75;;
24425;SDS011;12611;44.446;26.000;2024-01-25T13:31:46;1.08;;;0.90;;
24425;SDS011;12611;44.446;26.000;2024-01-25T13:34:15;1.02;;;0.85;;
24425;SDS011;12611;44.446;26.000;2024-01-25T13:36:43;4.15;;;1.38;;
24425;SDS011;12611;44.446;26.000;2024-01-25T13:39:12;4.03;;;1.42;;
24425;SDS011;12611;44.446;26.000;2024-01-25T13:41:40;2.30;;;1.02;;
24425;SDS011;12611;44.446;26.000;2024-01-25T13:44:09;1.13;;;0.98;;
24425;SDS011;12611;44.446;26.000;2024-01-25T13:46:39;1.40;;;0.80;;
24425;SDS011;12611;44.446;26.000;2024-01-25T13:49:07;0.63;;;0.60;;
24425;SDS011;12611;44.446;26.000;2024-01-25T13:51:36;11.18;;;1.00;;
24425;SDS011;12611;44.446;26.000;2024-01-25T13:54:04;1.60;;;0.85;;
24425;SDS011;12611;44.446;26.000;2024-01-25T13:56:33;0.63;;;0.63;;
24425;SDS011;12611;44.446;26.000;2024-01-25T13:59:01;5.10;;;1.23;;
24425;SDS011;12611;44.446;26.000;2024-01-25T14:01:30;1.00;;;0.90;;
24425;SDS011;12611;44.446;26.000;2024-01-25T14:04:00;4.00;;;2.28;;
24425;SDS011;12611;44.446;26.000;2024-01-25T14:06:29;2.22;;;1.27;;
24425;SDS011;12611;44.446;26.000;2024-01-25T14:08:57;1.38;;;1.27;;
24425;SDS011;12611;44.446;26.000;2024-01-25T14:11:26;1.17;;;1.08;;
24425;SDS011;12611;44.446;26.000;2024-01-25T14:13:55;1.50;;;1.33;;
24425;SDS011;12611;44.446;26.000;2024-01-25T14:16:23;2.50;;;1.42;;
24425;SDS011;12611;44.446;26.000;2024-01-25T14:18:52;1.23;;;0.85;;
24425;SDS011;12611;44.446;26.000;2024-01-25T14:21:22;0.93;;;0.93;;
24425;SDS011;12611;44.446;26.000;2024-01-25T14:24:04;1.37;;;0.90;;
24425;SDS011;12611;44.446;26.000;2024-01-25T14:26:33;1.33;;;1.20;;
24425;SDS011;12611;44.446;26.000;2024-01-25T14:29:15;0.80;;;0.80;;
24425;SDS011;12611;44.446;26.000;2024-01-25T14:31:57;1.77;;;1.47;;
24425;SDS011;12611;44.446;26.000;2024-01-25T14:34:26;1.30;;;1.17;;
24425;SDS011;12611;44.446;26.000;2024-01-25T14:37:10;3.13;;;0.70;;
24425;SDS011;12611;44.446;26.000;2024-01-25T14:39:38;1.03;;;0.93;;
24425;SDS011;12611;44.446;26.000;2024-01-25T14:42:17;2.17;;;1.37;;
24425;SDS011;12611;44.446;26.000;2024-01-25T14:44:59;3.23;;;1.70;;
24425;SDS011;12611;44.446;26.000;2024-01-25T14:47:29;1.80;;;1.13;;
24425;SDS011;12611;44.446;26.000;2024-01-25T14:49:57;2.73;;;0.93;;
24425;SDS011;12611;44.446;26.000;2024-01-25T14:52:27;4.03;;;1.63;;
24425;SDS011;12611;44.446;26.000;2024-01-25T14:55:00;1.27;;;0.80;;
24425;SDS011;12611;44.446;26.000;2024-01-25T14:57:43;0.87;;;0.87;;
24425;SDS011;12611;44.446;26.000;2024-01-25T15:00:12;4.87;;;1.47;;
24425;SDS011;12611;44.446;26.000;2024-01-25T15:02:46;2.03;;;1.83;;
24425;SDS011;12611;44.446;26.000;2024-01-25T15:05:42;0.80;;;0.80;;
24425;SDS011;12611;44.446;26.000;2024-01-25T15:08:25;1.70;;;1.60;;
24425;SDS011;12611;44.446;26.000;2024-01-25T15:11:08;1.70;;;1.10;;
24425;SDS011;12611;44.446;26.000;2024-01-25T15:13:36;1.23;;;1.17;;
24425;SDS011;12611;44.446;26.000;2024-01-25T15:16:05;0.70;;;0.70;;
24425;SDS011;12611;44.446;26.000;2024-01-25T15:18:34;1.60;;;1.37;;
24425;SDS011;12611;44.446;26.000;2024-01-25T15:21:03;8.20;;;2.27;;
24425;SDS011;12611;44.446;26.000;2024-01-25T15:23:33;0.80;;;0.80;;
24425;SDS011;12611;44.446;26.000;2024-01-25T15:26:02;2.27;;;1.47;;
24425;SDS011;12611;44.446;26.000;2024-01-25T15:28:31;6.03;;;2.20;;
24425;SDS011;12611;44.446;26.000;2024-01-25T15:31:01;2.03;;;1.50;;
24425;SDS011;12611;44.446;26.000;2024-01-25T15:33:29;1.80;;;1.67;;